createdAt,value
2019-03-26T00:00:33.961Z,34.37
2019-03-26T00:01:36.483Z,34.80
2019-03-26T00:02:38.669Z,34.17
2019-03-26T00:03:40.473Z,34.64
2019-03-26T00:04:42.491Z,35.60
2019-03-26T00:05:44.758Z,36.20
2019-03-26T00:06:46.451Z,35.93
2019-03-26T00:07:48.794Z,35.06
2019-03-26T00:08:50.891Z,34.20
2019-03-26T00:09:52.701Z,35.38
2019-03-26T00:10:55.008Z,34.01
2019-03-26T00:11:57.269Z,33.86
2019-03-26T00:12:59.417Z,34.52
2019-03-26T00:14:02.220Z,35.66
2019-03-26T00:15:05.513Z,34.11
2019-03-26T00:16:07.837Z,34.55
2019-03-26T00:17:09.899Z,34.67
2019-03-26T00:18:11.875Z,33.72
2019-03-26T00:19:13.747Z,34.14
2019-03-26T00:20:15.855Z,34.18
2019-03-26T00:21:18.041Z,34.19
2019-03-26T00:22:20.224Z,34.45
2019-03-26T00:23:22.227Z,36.02
2019-03-26T00:24:24.152Z,35.52
2019-03-26T00:25:26.627Z,35.62
2019-03-26T00:26:29.542Z,35.08
2019-03-26T00:27:31.600Z,35.97
2019-03-26T00:28:33.819Z,35.75
2019-03-26T00:29:35.836Z,35.22
2019-03-26T00:30:38.086Z,36.35
2019-03-26T00:31:40.168Z,35.49
2019-03-26T00:32:42.422Z,35.02
2019-03-26T00:33:44.462Z,34.00
2019-03-26T00:34:46.455Z,35.43
2019-03-26T00:35:48.476Z,34.80
2019-03-26T00:36:50.212Z,34.29
2019-03-26T00:37:52.225Z,33.79
2019-03-26T00:38:54.378Z,33.30
2019-03-26T00:39:56.027Z,33.21
2019-03-26T00:40:58.514Z,33.12
2019-03-26T00:42:00.828Z,33.20
2019-03-26T00:43:02.975Z,33.24
2019-03-26T00:44:05.143Z,33.17
2019-03-26T00:45:07.800Z,33.12
2019-03-26T00:46:09.852Z,33.61
2019-03-26T00:47:11.885Z,33.22
2019-03-26T00:48:13.870Z,33.15
2019-03-26T00:49:15.941Z,33.25
2019-03-26T00:50:18.165Z,33.86
2019-03-26T00:51:20.279Z,34.25
2019-03-26T00:52:22.227Z,35.23
2019-03-26T00:53:24.431Z,33.88
2019-03-26T00:54:26.515Z,34.41
2019-03-26T00:55:28.619Z,33.71
2019-03-26T00:56:30.979Z,33.42
2019-03-26T00:57:33.325Z,33.31
2019-03-26T00:58:35.273Z,33.06
2019-03-26T00:59:37.429Z,33.32
2019-03-26T01:00:41.291Z,33.08
2019-03-26T01:01:43.362Z,33.28
2019-03-26T01:02:45.457Z,32.82
2019-03-26T01:03:47.560Z,32.91
2019-03-26T01:04:49.431Z,33.47
2019-03-26T01:05:51.518Z,33.32
2019-03-26T01:06:53.502Z,33.29
2019-03-26T01:07:55.448Z,32.76
2019-03-26T01:08:57.661Z,33.17
2019-03-26T01:09:59.736Z,33.41
2019-03-26T01:11:01.774Z,33.40
2019-03-26T01:12:04.192Z,33.50
2019-03-26T01:13:07.138Z,33.41
2019-03-26T01:14:09.092Z,33.48
2019-03-26T01:15:10.945Z,33.71
2019-03-26T01:16:12.879Z,33.94
2019-03-26T01:17:15.012Z,33.31
2019-03-26T01:18:17.318Z,33.81
2019-03-26T01:19:19.545Z,33.81
2019-03-26T01:20:21.648Z,33.86
2019-03-26T01:21:23.497Z,33.86
2019-03-26T01:22:25.525Z,33.97
2019-03-26T01:23:27.527Z,33.92
2019-03-26T01:24:29.253Z,33.75
2019-03-26T01:25:31.335Z,33.93
2019-03-26T01:26:33.542Z,34.00
2019-03-26T01:27:35.603Z,34.02
2019-03-26T01:28:37.853Z,33.88
2019-03-26T01:29:40.034Z,34.14
2019-03-26T01:30:41.978Z,34.11
2019-03-26T01:31:43.692Z,34.06
2019-03-26T01:32:45.707Z,33.71
2019-03-26T01:33:47.778Z,33.67
2019-03-26T01:34:49.550Z,33.78
2019-03-26T01:35:51.775Z,33.64
2019-03-26T01:36:53.655Z,33.96
2019-03-26T01:37:55.717Z,34.16
2019-03-26T01:38:58.034Z,34.10
2019-03-26T01:39:59.903Z,34.22
2019-03-26T01:41:02.501Z,34.11
2019-03-26T01:42:04.476Z,34.08
2019-03-26T01:43:06.261Z,33.61
2019-03-26T01:44:08.518Z,33.83
2019-03-26T01:45:11.037Z,34.06
2019-03-26T01:46:14.123Z,34.18
2019-03-26T01:47:17.457Z,34.11
2019-03-26T01:48:19.622Z,33.96
2019-03-26T01:49:21.353Z,33.99
2019-03-26T01:50:23.669Z,33.60
2019-03-26T01:51:25.497Z,33.15
2019-03-26T01:52:27.679Z,33.69
2019-03-26T01:53:29.648Z,34.01
2019-03-26T01:54:31.736Z,34.19
2019-03-26T01:55:33.805Z,33.69
2019-03-26T01:56:35.753Z,33.67
2019-03-26T01:57:37.548Z,33.81
2019-03-26T01:58:39.529Z,33.61
2019-03-26T01:59:41.719Z,32.57
2019-03-26T02:00:43.492Z,32.54
2019-03-26T02:01:45.578Z,33.31
2019-03-26T02:02:47.785Z,33.53
2019-03-26T02:03:50.208Z,33.51
2019-03-26T02:04:59.945Z,33.42
2019-03-26T02:05:56.255Z,33.70
2019-03-26T02:06:58.235Z,33.49
2019-03-26T02:08:00.302Z,33.44
2019-03-26T02:09:04.361Z,33.68
2019-03-26T02:10:06.611Z,33.66
2019-03-26T02:11:08.819Z,33.52
2019-03-26T02:12:11.358Z,33.70
2019-03-26T02:13:13.450Z,33.64
2019-03-26T02:14:15.641Z,33.83
2019-03-26T02:15:26.864Z,33.83
2019-03-26T02:16:29.010Z,33.76
2019-03-26T02:17:31.054Z,33.41
2019-03-26T02:18:33.100Z,33.29
2019-03-26T02:19:34.763Z,33.17
2019-03-26T02:20:36.848Z,33.54
2019-03-26T02:21:38.889Z,33.69
2019-03-26T02:22:41.020Z,33.55
2019-03-26T02:23:43.294Z,33.78
2019-03-26T02:24:45.312Z,33.56
2019-03-26T02:25:47.508Z,33.51
2019-03-26T02:26:49.635Z,33.52
2019-03-26T02:27:51.515Z,33.58
2019-03-26T02:28:53.524Z,33.52
2019-03-26T02:29:55.718Z,32.82
2019-03-26T02:30:57.931Z,32.94
2019-03-26T02:32:00.063Z,33.20
2019-03-26T02:33:02.214Z,32.97
2019-03-26T02:34:04.220Z,33.10
2019-03-26T02:35:17.890Z,33.19
2019-03-26T02:36:12.011Z,33.24
2019-03-26T02:37:14.233Z,33.21
2019-03-26T02:38:16.231Z,33.26
2019-03-26T02:39:18.343Z,33.31
2019-03-26T02:40:20.582Z,33.28
2019-03-26T02:41:22.635Z,33.27
2019-03-26T02:42:24.824Z,33.25
2019-03-26T02:43:27.048Z,33.16
2019-03-26T02:44:30.035Z,33.12
2019-03-26T02:45:32.643Z,33.40
2019-03-26T02:46:34.985Z,33.41
2019-03-26T02:47:36.964Z,33.25
2019-03-26T02:48:38.792Z,33.47
2019-03-26T02:49:40.779Z,33.55
2019-03-26T02:50:42.916Z,33.48
2019-03-26T02:51:44.911Z,33.60
2019-03-26T02:52:46.853Z,33.26
2019-03-26T02:53:48.869Z,33.14
2019-03-26T02:54:51.170Z,33.48
2019-03-26T02:55:53.248Z,33.52
2019-03-26T02:56:55.500Z,33.67
2019-03-26T02:57:57.497Z,33.83
2019-03-26T02:58:59.768Z,33.82
2019-03-26T03:00:03.619Z,33.57
2019-03-26T03:01:07.125Z,33.86
2019-03-26T03:02:09.112Z,34.18
2019-03-26T03:03:11.313Z,34.19
2019-03-26T03:04:12.961Z,34.12
2019-03-26T03:05:15.748Z,34.11
2019-03-26T03:06:17.792Z,34.09
2019-03-26T03:07:21.893Z,34.33
2019-03-26T03:08:23.993Z,34.15
2019-03-26T03:09:26.246Z,34.16
2019-03-26T03:10:28.427Z,34.11
2019-03-26T03:11:30.873Z,34.29
2019-03-26T03:12:32.686Z,34.15
2019-03-26T03:13:34.877Z,34.19
2019-03-26T03:14:36.972Z,34.07
2019-03-26T03:15:38.643Z,34.15
2019-03-26T03:16:40.709Z,34.26
2019-03-26T03:17:43.109Z,34.09
2019-03-26T03:18:45.751Z,34.13
2019-03-26T03:19:47.848Z,34.20
2019-03-26T03:20:50.073Z,35.12
2019-03-26T03:21:52.028Z,34.11
2019-03-26T03:22:54.222Z,34.12
2019-03-26T03:23:56.181Z,34.05
2019-03-26T03:24:58.459Z,34.04
2019-03-26T03:26:00.517Z,34.18
2019-03-26T03:27:02.809Z,34.67
2019-03-26T03:28:04.553Z,33.99
2019-03-26T03:29:06.749Z,33.95
2019-03-26T03:30:09.325Z,33.96
2019-03-26T03:31:11.303Z,33.99
2019-03-26T03:32:13.275Z,34.00
2019-03-26T03:33:15.373Z,33.88
2019-03-26T03:34:19.215Z,33.85
2019-03-26T03:35:21.439Z,33.82
2019-03-26T03:36:23.077Z,33.84
2019-03-26T03:37:24.875Z,33.75
2019-03-26T03:38:27.392Z,33.89
2019-03-26T03:39:29.351Z,33.82
2019-03-26T03:40:31.416Z,33.88
2019-03-26T03:41:35.625Z,33.85
2019-03-26T03:42:38.618Z,34.00
2019-03-26T03:43:40.618Z,33.91
2019-03-26T03:44:42.662Z,33.90
2019-03-26T03:45:44.991Z,33.94
2019-03-26T03:46:48.108Z,33.84
2019-03-26T03:47:50.530Z,34.15
2019-03-26T03:48:52.537Z,34.04
2019-03-26T03:49:57.662Z,34.09
2019-03-26T03:51:03.226Z,34.13
2019-03-26T03:52:07.560Z,34.14
2019-03-26T03:53:12.939Z,33.76
2019-03-26T03:54:16.281Z,33.96
2019-03-26T03:55:18.160Z,33.91
2019-03-26T03:56:24.156Z,34.05
2019-03-26T03:57:30.279Z,34.02
2019-03-26T03:58:34.605Z,33.87
2019-03-26T03:59:38.553Z,33.48
2019-03-26T04:00:40.780Z,34.09
2019-03-26T04:01:42.835Z,34.35
2019-03-26T04:02:44.876Z,34.61
2019-03-26T04:03:47.191Z,34.69
2019-03-26T04:04:49.144Z,34.53
2019-03-26T04:06:07.749Z,34.53
2019-03-26T04:06:55.191Z,34.35
2019-03-26T04:07:57.370Z,34.54
2019-03-26T04:08:59.465Z,34.48
2019-03-26T04:10:01.389Z,35.69
2019-03-26T04:11:03.572Z,35.70
2019-03-26T04:12:05.687Z,35.83
2019-03-26T04:13:07.969Z,35.67
2019-03-26T04:14:10.149Z,35.45
2019-03-26T04:15:12.875Z,35.26
2019-03-26T04:16:14.777Z,35.32
2019-03-26T04:17:16.777Z,35.24
2019-03-26T04:18:18.887Z,35.33
2019-03-26T04:19:21.047Z,35.05
2019-03-26T04:20:23.188Z,35.11
2019-03-26T04:21:25.205Z,35.14
2019-03-26T04:22:27.216Z,35.11
2019-03-26T04:23:29.364Z,35.17
2019-03-26T04:24:31.517Z,35.19
2019-03-26T04:25:33.360Z,35.00
2019-03-26T04:26:37.584Z,35.05
2019-03-26T04:27:39.425Z,34.93
2019-03-26T04:28:41.299Z,34.97
2019-03-26T04:29:43.469Z,34.87
2019-03-26T04:30:46.048Z,34.48
2019-03-26T04:31:48.162Z,34.89
2019-03-26T04:32:50.206Z,34.74
2019-03-26T04:33:52.337Z,34.50
2019-03-26T04:34:54.578Z,34.66
2019-03-26T04:35:56.533Z,34.66
2019-03-26T04:36:58.283Z,34.61
2019-03-26T04:38:00.786Z,34.58
2019-03-26T04:39:05.645Z,34.65
2019-03-26T04:40:08.043Z,34.63
2019-03-26T04:41:10.102Z,34.69
2019-03-26T04:42:11.915Z,34.54
2019-03-26T04:43:13.872Z,34.49
2019-03-26T04:44:15.958Z,34.55
2019-03-26T04:45:18.290Z,34.42
2019-03-26T04:46:20.354Z,34.17
2019-03-26T04:47:22.404Z,34.25
2019-03-26T04:48:24.515Z,34.36
2019-03-26T04:49:26.596Z,33.87
2019-03-26T04:50:29.934Z,34.11
2019-03-26T04:51:32.549Z,34.26
2019-03-26T04:52:34.195Z,34.33
2019-03-26T04:53:36.682Z,34.36
2019-03-26T04:54:38.883Z,34.05
2019-03-26T04:55:41.834Z,34.34
2019-03-26T04:56:43.824Z,33.90
2019-03-26T04:57:45.590Z,33.76
2019-03-26T04:58:47.710Z,34.25
2019-03-26T04:59:49.822Z,34.32
2019-03-26T05:00:52.031Z,33.83
2019-03-26T05:01:55.374Z,33.59
2019-03-26T05:02:57.786Z,33.68
2019-03-26T05:03:59.676Z,34.28
2019-03-26T05:05:02.212Z,34.18
2019-03-26T05:06:04.306Z,34.12
2019-03-26T05:07:06.210Z,33.98
2019-03-26T05:08:08.372Z,34.30
2019-03-26T05:09:10.551Z,33.86
2019-03-26T05:10:12.517Z,34.19
2019-03-26T05:11:14.880Z,34.47
2019-03-26T05:12:16.789Z,34.19
2019-03-26T05:13:19.351Z,34.38
2019-03-26T05:14:21.326Z,33.81
2019-03-26T05:15:23.491Z,34.19
2019-03-26T05:16:25.565Z,33.97
2019-03-26T05:17:27.553Z,34.20
2019-03-26T05:18:29.573Z,34.09
2019-03-26T05:19:31.667Z,34.24
2019-03-26T05:20:33.799Z,34.50
2019-03-26T05:21:35.913Z,34.37
2019-03-26T05:22:38.230Z,33.89
2019-03-26T05:23:40.203Z,33.71
2019-03-26T05:24:41.950Z,34.00
2019-03-26T05:25:44.039Z,33.68
2019-03-26T05:26:46.007Z,33.62
2019-03-26T05:27:47.951Z,34.06
2019-03-26T05:28:49.988Z,34.06
2019-03-26T05:29:52.133Z,33.91
2019-03-26T05:30:55.048Z,33.99
2019-03-26T05:32:00.100Z,33.70
2019-03-26T05:33:02.326Z,34.82
2019-03-26T05:34:04.366Z,35.27
2019-03-26T05:35:07.014Z,35.28
2019-03-26T05:36:09.678Z,35.40
2019-03-26T05:37:11.668Z,35.04
2019-03-26T05:38:13.747Z,34.55
2019-03-26T05:39:16.873Z,34.72
2019-03-26T05:40:19.065Z,34.79
2019-03-26T05:41:21.189Z,35.40
2019-03-26T05:42:23.217Z,34.93
2019-03-26T05:43:25.396Z,34.98
2019-03-26T05:44:27.728Z,34.72
2019-03-26T05:45:29.762Z,34.88
2019-03-26T05:46:31.820Z,35.18
2019-03-26T05:47:34.164Z,35.13
2019-03-26T05:48:36.444Z,35.67
2019-03-26T05:49:38.450Z,34.62
2019-03-26T05:50:40.549Z,34.83
2019-03-26T05:51:42.611Z,35.31
2019-03-26T05:52:44.726Z,35.80
2019-03-26T05:53:46.723Z,35.14
2019-03-26T05:54:48.634Z,35.17
2019-03-26T05:55:50.595Z,34.90
2019-03-26T05:56:52.793Z,35.23
2019-03-26T05:57:54.619Z,35.80
2019-03-26T05:58:56.851Z,35.61
2019-03-26T05:59:58.928Z,35.08
2019-03-26T06:01:01.004Z,35.26
2019-03-26T06:02:14.248Z,34.86
2019-03-26T06:03:09.228Z,35.09
2019-03-26T06:04:11.297Z,35.21
2019-03-26T06:05:13.559Z,35.35
2019-03-26T06:06:15.556Z,35.15
2019-03-26T06:07:17.579Z,34.58
2019-03-26T06:08:19.695Z,34.80
2019-03-26T06:09:21.845Z,35.58
2019-03-26T06:10:24.040Z,35.12
2019-03-26T06:11:26.239Z,35.06
2019-03-26T06:12:27.925Z,34.64
2019-03-26T06:13:29.893Z,35.44
2019-03-26T06:14:31.898Z,35.24
2019-03-26T06:15:34.101Z,35.45
2019-03-26T06:16:38.587Z,34.59
2019-03-26T06:17:40.372Z,34.45
2019-03-26T06:18:42.139Z,34.61
2019-03-26T06:19:44.520Z,34.73
2019-03-26T06:20:46.669Z,35.15
2019-03-26T06:21:48.843Z,35.37
2019-03-26T06:22:50.958Z,34.70
2019-03-26T06:23:53.818Z,34.54
2019-03-26T06:24:56.006Z,34.19
2019-03-26T06:25:58.211Z,34.95
2019-03-26T06:27:00.179Z,35.95
2019-03-26T06:28:01.971Z,35.35
2019-03-26T06:29:04.207Z,35.23
2019-03-26T06:30:08.770Z,34.97
2019-03-26T06:31:10.460Z,40.80
2019-03-26T06:32:12.750Z,36.25
2019-03-26T06:33:14.800Z,37.03
2019-03-26T06:34:17.042Z,35.05
2019-03-26T06:35:19.080Z,35.17
2019-03-26T06:36:21.092Z,34.66
2019-03-26T06:37:23.190Z,34.43
2019-03-26T06:38:25.538Z,34.43
2019-03-26T06:39:29.231Z,34.76
2019-03-26T06:40:31.487Z,34.11
2019-03-26T06:41:33.514Z,34.48
2019-03-26T06:42:35.929Z,34.09
2019-03-26T06:43:37.673Z,33.75
2019-03-26T06:44:39.714Z,33.64
2019-03-26T06:45:41.668Z,33.25
2019-03-26T06:46:43.719Z,33.70
2019-03-26T06:47:45.789Z,33.64
2019-03-26T06:48:47.628Z,33.62
2019-03-26T06:49:49.619Z,34.06
2019-03-26T06:50:51.918Z,33.83
2019-03-26T06:51:54.069Z,32.98
2019-03-26T06:52:56.095Z,33.07
2019-03-26T06:53:58.157Z,33.68
2019-03-26T06:54:59.821Z,33.75
2019-03-26T06:56:01.918Z,34.30
2019-03-26T06:57:03.905Z,33.98
2019-03-26T06:58:05.888Z,33.60
2019-03-26T06:59:08.192Z,34.02
2019-03-26T07:00:12.751Z,34.43
2019-03-26T07:01:14.602Z,34.15
2019-03-26T07:02:18.111Z,33.97
2019-03-26T07:03:21.148Z,34.07
2019-03-26T07:04:26.442Z,33.71
2019-03-26T07:05:28.616Z,33.83
2019-03-26T07:06:30.763Z,33.70
2019-03-26T07:07:33.142Z,33.77
2019-03-26T07:08:35.132Z,34.01
2019-03-26T07:09:37.027Z,34.48
2019-03-26T07:10:39.098Z,34.44
2019-03-26T07:11:41.076Z,35.05
2019-03-26T07:12:44.445Z,33.11
2019-03-26T07:13:46.479Z,33.49
2019-03-26T07:14:48.662Z,34.08
2019-03-26T07:15:50.695Z,33.64
2019-03-26T07:16:52.677Z,34.44
2019-03-26T07:17:54.879Z,34.49
2019-03-26T07:18:56.706Z,33.44
2019-03-26T07:19:58.870Z,33.34
2019-03-26T07:21:01.226Z,33.36
2019-03-26T07:22:03.590Z,33.85
2019-03-26T07:23:08.364Z,33.20
2019-03-26T07:24:09.457Z,32.77
2019-03-26T07:25:12.000Z,33.36
2019-03-26T07:26:14.416Z,33.41
2019-03-26T07:27:16.723Z,34.08
2019-03-26T07:28:18.512Z,33.84
2019-03-26T07:29:20.786Z,33.86
2019-03-26T07:30:42.700Z,34.06
2019-03-26T07:31:44.816Z,33.22
2019-03-26T07:32:48.020Z,33.59
2019-03-26T07:33:50.082Z,33.09
2019-03-26T07:34:52.179Z,33.17
2019-03-26T07:35:55.878Z,33.54
2019-03-26T07:36:58.066Z,33.03
2019-03-26T07:38:00.210Z,33.20
2019-03-26T07:39:03.957Z,33.45
2019-03-26T07:40:07.156Z,33.31
2019-03-26T07:41:09.111Z,32.42
2019-03-26T07:42:10.867Z,32.41
2019-03-26T07:43:13.104Z,32.41
2019-03-26T07:44:15.214Z,32.98
2019-03-26T07:45:17.321Z,33.20
2019-03-26T07:46:19.099Z,33.04
2019-03-26T07:47:21.356Z,33.62
2019-03-26T07:48:23.441Z,33.50
2019-03-26T07:49:25.166Z,33.72
2019-03-26T07:50:27.254Z,34.00
2019-03-26T07:51:29.545Z,33.38
2019-03-26T07:52:31.595Z,33.18
2019-03-26T07:53:33.717Z,33.84
2019-03-26T07:54:35.376Z,32.43
2019-03-26T07:55:38.644Z,33.26
2019-03-26T07:56:40.897Z,33.61
2019-03-26T07:57:42.915Z,33.30
2019-03-26T07:58:45.029Z,33.40
2019-03-26T07:59:47.681Z,33.04
2019-03-26T08:00:49.773Z,31.83
2019-03-26T08:01:51.966Z,31.63
2019-03-26T08:02:54.383Z,32.08
2019-03-26T08:03:56.060Z,31.96
2019-03-26T08:04:58.368Z,31.70
2019-03-26T08:06:01.026Z,32.40
2019-03-26T08:07:02.966Z,33.02
2019-03-26T08:08:05.417Z,32.67
2019-03-26T08:09:07.065Z,32.78
2019-03-26T08:10:09.442Z,34.18
2019-03-26T08:11:11.601Z,31.82
2019-03-26T08:12:15.425Z,31.91
2019-03-26T08:13:18.763Z,31.96
2019-03-26T08:14:21.200Z,31.02
2019-03-26T08:15:23.291Z,33.47
2019-03-26T08:16:25.121Z,32.42
2019-03-26T08:17:27.377Z,32.44
2019-03-26T08:18:29.661Z,32.21
2019-03-26T08:19:31.893Z,31.09
2019-03-26T08:20:33.877Z,31.46
2019-03-26T08:21:35.972Z,31.82
2019-03-26T08:22:37.944Z,30.98
2019-03-26T08:23:40.216Z,31.26
2019-03-26T08:24:42.027Z,31.05
2019-03-26T08:25:44.186Z,30.89
2019-03-26T08:26:46.678Z,30.26
2019-03-26T08:27:48.807Z,30.68
2019-03-26T08:28:50.930Z,30.36
2019-03-26T08:29:52.938Z,30.61
2019-03-26T08:30:54.734Z,30.77
2019-03-26T08:31:56.849Z,30.33
2019-03-26T08:32:58.910Z,30.57
2019-03-26T08:34:00.605Z,31.01
2019-03-26T08:35:04.402Z,30.48
2019-03-26T08:36:06.351Z,30.70
2019-03-26T08:37:08.661Z,31.06
2019-03-26T08:38:12.976Z,30.37
2019-03-26T08:39:14.599Z,31.37
2019-03-26T08:40:17.007Z,31.00
2019-03-26T08:41:19.195Z,32.00
2019-03-26T08:42:21.170Z,31.25
2019-03-26T08:43:23.364Z,30.72
2019-03-26T08:44:25.557Z,30.04
2019-03-26T08:45:27.225Z,30.32
2019-03-26T08:46:29.410Z,29.62
2019-03-26T08:47:31.505Z,30.14
2019-03-26T08:48:34.649Z,32.74
2019-03-26T08:49:36.839Z,31.83
2019-03-26T08:50:39.115Z,30.39
2019-03-26T08:51:41.246Z,30.28
2019-03-26T08:52:43.354Z,30.45
2019-03-26T08:53:45.387Z,32.46
2019-03-26T08:54:47.379Z,34.16
2019-03-26T08:55:49.513Z,33.54
2019-03-26T08:56:51.669Z,34.82
2019-03-26T08:57:53.351Z,34.34
2019-03-26T08:58:56.147Z,32.67
2019-03-26T08:59:58.169Z,30.77
2019-03-26T09:00:59.945Z,33.81
2019-03-26T09:02:02.058Z,30.80
2019-03-26T09:03:04.168Z,31.76
2019-03-26T09:04:06.223Z,29.74
2019-03-26T09:05:08.731Z,31.31
2019-03-26T09:06:10.850Z,33.42
2019-03-26T09:07:13.131Z,34.12
2019-03-26T09:09:18.900Z,29.65
2019-03-26T09:10:20.891Z,30.80
2019-03-26T09:11:23.056Z,28.73
2019-03-26T09:12:25.160Z,31.56
2019-03-26T09:13:27.222Z,29.63
2019-03-26T09:14:29.441Z,29.31
2019-03-26T09:15:31.680Z,27.68
2019-03-26T09:16:33.870Z,27.37
2019-03-26T09:17:38.519Z,27.22
2019-03-26T09:18:40.180Z,27.75
2019-03-26T09:19:42.118Z,27.66
2019-03-26T09:20:44.420Z,27.98
2019-03-26T09:21:46.096Z,28.28
2019-03-26T09:22:48.080Z,28.74
2019-03-26T09:23:50.198Z,28.66
2019-03-26T09:24:52.000Z,28.26
2019-03-26T09:25:54.226Z,28.39
2019-03-26T09:26:56.182Z,30.33
2019-03-26T09:27:58.262Z,28.63
2019-03-26T09:29:00.559Z,28.16
2019-03-26T09:30:07.106Z,28.30
2019-03-26T09:31:09.388Z,28.94
2019-03-26T09:32:11.985Z,27.76
2019-03-26T09:33:15.423Z,27.75
2019-03-26T09:34:17.470Z,32.58
2019-03-26T09:35:19.946Z,31.45
2019-03-26T09:36:22.029Z,28.63
2019-03-26T09:37:24.014Z,29.11
2019-03-26T09:38:38.392Z,28.35
2019-03-26T09:39:30.438Z,28.38
2019-03-26T09:40:32.469Z,28.49
2019-03-26T09:41:34.722Z,32.20
2019-03-26T09:42:37.312Z,28.95
2019-03-26T09:43:40.581Z,28.58
2019-03-26T09:44:42.859Z,31.36
2019-03-26T09:45:45.007Z,30.17
2019-03-26T09:46:47.178Z,30.27
2019-03-26T09:47:49.254Z,32.77
2019-03-26T09:48:51.521Z,32.89
2019-03-26T09:49:53.735Z,32.65
2019-03-26T09:50:56.058Z,29.77
2019-03-26T09:51:57.901Z,31.06
2019-03-26T09:53:00.177Z,32.66
2019-03-26T09:54:02.310Z,31.46
2019-03-26T09:55:07.644Z,31.24
2019-03-26T09:56:09.623Z,32.39
2019-03-26T09:57:11.714Z,29.45
2019-03-26T09:58:13.491Z,28.64
2019-03-26T09:59:15.645Z,30.21
2019-03-26T10:00:17.573Z,28.22
2019-03-26T10:01:19.791Z,26.44
2019-03-26T10:02:21.844Z,28.45
2019-03-26T10:03:23.743Z,27.14
2019-03-26T10:04:25.458Z,26.94
2019-03-26T10:05:27.637Z,26.82
2019-03-26T10:06:29.901Z,27.52
2019-03-26T10:07:31.955Z,27.69
2019-03-26T10:08:35.141Z,28.21
2019-03-26T10:09:37.226Z,27.71
2019-03-26T10:10:39.367Z,31.14
2019-03-26T10:11:41.484Z,31.75
2019-03-26T10:12:43.534Z,32.37
2019-03-26T10:13:45.654Z,32.59
2019-03-26T10:14:47.956Z,32.33
2019-03-26T10:15:49.593Z,28.24
2019-03-26T10:16:51.613Z,27.49
2019-03-26T10:17:53.739Z,30.14
2019-03-26T10:18:55.717Z,28.28
2019-03-26T10:19:57.906Z,25.43
2019-03-26T10:21:00.065Z,25.72
2019-03-26T10:22:01.890Z,26.10
2019-03-26T10:23:04.310Z,26.74
2019-03-26T10:24:06.039Z,26.19
2019-03-26T10:25:10.937Z,28.63
2019-03-26T10:26:12.527Z,29.59
2019-03-26T10:27:14.512Z,27.18
2019-03-26T10:28:16.589Z,26.54
2019-03-26T10:29:29.612Z,26.71
2019-03-26T10:30:40.065Z,26.37
2019-03-26T10:31:43.668Z,25.91
2019-03-26T10:32:45.813Z,25.42
2019-03-26T10:33:47.879Z,26.26
2019-03-26T10:34:50.950Z,25.76
2019-03-26T10:35:53.306Z,24.91
2019-03-26T10:36:56.058Z,24.59
2019-03-26T10:37:58.154Z,24.92
2019-03-26T10:39:05.875Z,25.82
2019-03-26T10:40:08.920Z,26.58
2019-03-26T10:41:11.311Z,30.67
2019-03-26T10:42:13.442Z,26.83
2019-03-26T10:43:15.209Z,30.59
2019-03-26T10:44:17.479Z,29.39
2019-03-26T10:45:19.884Z,29.08
2019-03-26T10:46:22.057Z,29.54
2019-03-26T10:47:25.110Z,26.59
2019-03-26T10:48:31.644Z,26.45
2019-03-26T10:49:32.372Z,26.65
2019-03-26T10:50:34.574Z,26.05
2019-03-26T10:51:37.986Z,26.80
2019-03-26T10:52:39.997Z,27.26
2019-03-26T10:53:42.086Z,26.65
2019-03-26T10:54:43.747Z,25.59
2019-03-26T10:55:45.737Z,24.85
2019-03-26T10:56:47.916Z,24.71
2019-03-26T10:57:50.071Z,25.15
2019-03-26T10:58:52.182Z,25.67
2019-03-26T10:59:54.314Z,25.74
2019-03-26T11:00:56.032Z,26.17
2019-03-26T11:01:59.945Z,26.51
2019-03-26T11:03:02.777Z,27.64
2019-03-26T11:04:07.559Z,26.13
2019-03-26T11:05:09.064Z,26.44
2019-03-26T11:06:11.353Z,27.82
2019-03-26T11:07:13.017Z,26.81
2019-03-26T11:08:15.196Z,27.21
2019-03-26T11:09:24.108Z,26.71
2019-03-26T11:10:21.941Z,26.76
2019-03-26T11:11:25.301Z,26.40
2019-03-26T11:12:27.419Z,26.89
2019-03-26T11:13:29.819Z,26.96
2019-03-26T11:14:32.052Z,26.81
2019-03-26T11:15:33.945Z,26.96
2019-03-26T11:16:36.256Z,27.17
2019-03-26T11:17:38.716Z,27.46
2019-03-26T11:18:40.629Z,27.02
2019-03-26T11:19:42.844Z,26.97
2019-03-26T11:20:45.642Z,27.90
2019-03-26T11:21:47.608Z,27.88
2019-03-26T11:22:50.290Z,27.14
2019-03-26T11:23:52.456Z,26.62
2019-03-26T11:24:54.376Z,26.57
2019-03-26T11:25:56.918Z,27.28
2019-03-26T11:26:59.245Z,27.33
2019-03-26T11:28:01.553Z,26.83
2019-03-26T11:29:04.859Z,27.15
2019-03-26T11:30:08.940Z,27.15
2019-03-26T11:31:11.430Z,26.87
2019-03-26T11:32:13.537Z,27.04
2019-03-26T11:33:15.822Z,26.79
2019-03-26T11:34:17.523Z,26.34
2019-03-26T11:35:19.735Z,27.02
2019-03-26T11:36:21.791Z,27.98
2019-03-26T11:37:23.814Z,29.74
2019-03-26T11:38:26.085Z,28.63
2019-03-26T11:39:32.892Z,27.25
2019-03-26T11:40:32.021Z,26.79
2019-03-26T11:41:34.269Z,27.31
2019-03-26T11:42:36.561Z,27.06
2019-03-26T11:43:38.627Z,27.45
2019-03-26T11:44:40.737Z,27.87
2019-03-26T11:45:42.946Z,28.08
2019-03-26T11:46:45.132Z,28.02
2019-03-26T11:47:48.360Z,27.66
2019-03-26T11:48:50.535Z,27.72
2019-03-26T11:49:53.820Z,27.63
2019-03-26T11:50:55.927Z,29.09
2019-03-26T11:51:57.779Z,28.27
2019-03-26T11:53:00.069Z,28.32
2019-03-26T11:54:02.241Z,28.52
2019-03-26T11:55:07.502Z,28.72
2019-03-26T11:56:09.628Z,28.33
2019-03-26T11:57:11.756Z,27.98
2019-03-26T11:58:13.951Z,26.96
2019-03-26T11:59:16.270Z,26.91
2019-03-26T12:00:21.223Z,26.57
2019-03-26T12:01:23.320Z,27.55
2019-03-26T12:02:25.290Z,27.39
2019-03-26T12:03:27.348Z,26.74
2019-03-26T12:04:29.229Z,29.53
2019-03-26T12:05:31.408Z,27.52
2019-03-26T12:06:33.391Z,27.09
2019-03-26T12:07:36.355Z,26.81
2019-03-26T12:08:38.298Z,27.23
2019-03-26T12:09:46.180Z,26.41
2019-03-26T12:10:44.054Z,26.75
2019-03-26T12:11:46.206Z,26.84
2019-03-26T12:12:48.070Z,26.36
2019-03-26T12:13:50.254Z,28.21
2019-03-26T12:14:52.651Z,26.97
2019-03-26T12:15:54.716Z,30.00
2019-03-26T12:16:57.182Z,28.11
2019-03-26T12:17:59.326Z,28.53
2019-03-26T12:19:01.256Z,28.95
2019-03-26T12:20:07.317Z,31.30
2019-03-26T12:21:09.315Z,27.42
2019-03-26T12:22:11.356Z,28.95
2019-03-26T12:23:13.742Z,28.25
2019-03-26T12:24:15.947Z,26.65
2019-03-26T12:25:17.815Z,27.05
2019-03-26T12:26:20.143Z,29.67
2019-03-26T12:27:22.239Z,31.60
2019-03-26T12:28:24.436Z,32.19
2019-03-26T12:29:26.629Z,29.49
2019-03-26T12:30:34.467Z,31.33
2019-03-26T12:31:37.817Z,27.70
2019-03-26T12:32:41.119Z,28.14
2019-03-26T12:33:43.779Z,27.12
2019-03-26T12:34:45.867Z,26.73
2019-03-26T12:35:48.037Z,27.09
2019-03-26T12:36:49.897Z,28.29
2019-03-26T12:37:52.063Z,26.63
2019-03-26T12:38:55.331Z,26.71
2019-03-26T12:39:59.876Z,30.33
2019-03-26T12:41:01.269Z,27.05
2019-03-26T12:42:03.663Z,28.57
2019-03-26T12:43:05.554Z,27.99
2019-03-26T12:44:07.517Z,28.69
2019-03-26T12:45:09.947Z,29.90
2019-03-26T12:46:12.131Z,31.05
2019-03-26T12:47:14.139Z,30.98
2019-03-26T12:48:16.445Z,31.12
2019-03-26T12:49:18.316Z,30.01
2019-03-26T12:50:21.773Z,29.76
2019-03-26T12:51:24.079Z,27.64
2019-03-26T12:52:26.111Z,27.05
2019-03-26T12:53:28.183Z,28.61
2019-03-26T12:54:30.963Z,26.00
2019-03-26T12:55:32.922Z,29.21
2019-03-26T12:56:35.076Z,26.61
2019-03-26T12:57:37.749Z,30.30
2019-03-26T12:58:40.044Z,26.89
2019-03-26T12:59:42.074Z,28.84
2019-03-26T13:00:44.208Z,27.62
2019-03-26T13:01:46.264Z,29.64
2019-03-26T13:02:48.283Z,30.21
2019-03-26T13:03:50.658Z,28.66
2019-03-26T13:04:53.058Z,25.81
2019-03-26T13:05:55.305Z,24.82
2019-03-26T13:06:57.291Z,25.88
2019-03-26T13:07:59.280Z,24.52
2019-03-26T13:09:01.298Z,25.25
2019-03-26T13:10:13.598Z,26.78
2019-03-26T13:11:10.960Z,28.21
2019-03-26T13:12:13.020Z,28.23
2019-03-26T13:13:15.533Z,28.47
2019-03-26T13:14:17.756Z,28.56
2019-03-26T13:15:19.825Z,30.12
2019-03-26T13:16:21.917Z,28.49
2019-03-26T13:17:23.873Z,28.28
2019-03-26T13:18:26.013Z,28.92
2019-03-26T13:19:28.073Z,28.59
2019-03-26T13:20:30.075Z,28.55
2019-03-26T13:21:32.118Z,28.16
2019-03-26T13:22:34.222Z,29.68
2019-03-26T13:23:36.268Z,27.98
2019-03-26T13:24:37.983Z,28.01